メインページ
METAR-TAF:

METAR-TAF

空港 :

ドゥシャンベ, タジキスタン

ドゥシャンベ空港

緯度: 38-33N, 経度: 068-47E, 海抜: 803m

現時点の気象観測

当レポートは36分前の14:00(UTC)に作成
西/北西の風 8kt
気温 36°C
湿度 18%
気圧 1003 hPa
視程10km以上

METAR: UTDD 271400Z 29004MPS 9999 NSC 36/08 Q1003 R27/D TEMPO 29008MPS RMK QFE686/0914

時間: 19:36 (14:36 UTC)

予報

当レポートは2時間36分前の12:00(UTC)に作成
予報は27日の 13時(UTC)から 28日の 01時(UTC)まで有効
変向風 4kt
視程: 6000m
高度6600ftの雲はほとんどない
高度15000ftの雲は散在している
27日の 13時(UTC)から 27日の 22時(UTC)まで一時的に
西の風 14kt

TAF: UTDD 271200Z 2713/2801 VRB02MPS 6000 FEW066 SCT150 TEMPO 2713/2722 27007MPS

4,000以上の空港の気象観測と天気予報(METAR報とTAF報)

利用可能な観測所は地図上に黄色い丸と赤い丸で示す。

丸の上にカーソルを重ねると観測所名を参照できる。

次にクリックすると気象観測と天気予報を参照できる。

マップの切り替え:黒色「×」印の緑ボタンをクリックして拡大、「-」印の緑ボタンをクリックして縮小、緑色の三角印をクリックして隣りの地図に切り替え


METAR-TAF: